Time;durP1;ratioP1;P1;durP2;ratioP2;P2;SDS_P1;SDS_P2;PMS_P1;PMS_P2;Temp;Humidity;BMP_temperature;BMP_pressure;BME280_temperature;BME280_humidity;BME280_pressure;Samples;Min_cycle;Max_cycle;Signal;HPM_P1;HPM_P2
2021/11/12 00:04:33;;;;;;;74.67;34.10;;;9.00;99.90;;;;;;5068271;28;20203;-66
2021/11/12 00:12:34;;;;;;;84.80;35.53;;;9.40;99.90;;;;;;5067615;28;20205;-67
2021/11/12 00:15:00;;;;;;;74.57;33.33;;;9.30;99.90;;;;;;5067759;28;20172;-67
2021/11/12 00:17:29;;;;;;;69.57;33.23;;;8.80;99.90;;;;;;5067670;28;20322;-66
2021/11/12 00:19:56;;;;;;;61.00;29.77;;;8.50;99.90;;;;;;5067785;28;20192;-66
2021/11/12 00:22:23;;;;;;;60.87;30.60;;;8.40;99.90;;;;;;5067524;28;20160;-67
2021/11/12 00:25:01;;;;;;;59.40;28.30;;;8.30;99.90;;;;;;5067724;28;20160;-67
2021/11/12 00:27:28;;;;;;;65.33;29.13;;;8.20;99.90;;;;;;5067492;28;20173;-66
2021/11/12 00:30:16;;;;;;;59.10;28.40;;;8.30;99.90;;;;;;5067324;28;20173;-66
2021/11/12 00:35:33;;;;;;;57.30;27.60;;;8.20;99.90;;;;;;5067589;28;20184;-67
2021/11/12 00:38:09;;;;;;;55.47;27.57;;;8.10;99.90;;;;;;5067387;28;20214;-66
2021/11/12 00:45:33;;;;;;;55.83;26.40;;;8.20;99.90;;;;;;5067147;28;20219;-67
2021/11/12 00:48:10;;;;;;;50.33;26.33;;;8.20;99.90;;;;;;5066634;28;20256;-67
2021/11/12 00:55:37;;;;;;;61.30;28.17;;;8.30;99.90;;;;;;5066988;28;20188;-67
2021/11/12 00:58:02;;;;;;;51.50;28.17;;;8.20;99.90;;;;;;5066800;28;20161;-66
2021/11/12 01:00:28;;;;;;;57.73;27.83;;;8.20;99.90;;;;;;5066825;28;20219;-67
2021/11/12 01:02:55;;;;;;;51.57;27.30;;;8.10;99.90;;;;;;5067033;28;20161;-67
2021/11/12 01:05:21;;;;;;;56.63;26.27;;;8.00;99.90;;;;;;5066698;28;20163;-67
2021/11/12 01:07:46;;;;;;;59.17;28.57;;;7.90;99.90;;;;;;5066583;28;20196;-67
2021/11/12 01:10:14;;;;;;;51.90;27.37;;;7.90;99.90;;;;;;5066447;28;20168;-67
2021/11/12 01:12:42;;;;;;;54.00;27.23;;;7.90;99.90;;;;;;5066458;28;20211;-66
2021/11/12 01:15:12;;;;;;;55.67;27.53;;;7.90;99.90;;;;;;5066594;28;20173;-67
2021/11/12 01:17:41;;;;;;;60.07;29.30;;;8.00;99.90;;;;;;5066659;28;20164;-66
2021/11/12 01:20:09;;;;;;;57.07;28.73;;;7.90;99.90;;;;;;5066717;28;20238;-66
2021/11/12 01:22:34;;;;;;;63.90;30.60;;;7.90;99.90;;;;;;5066631;28;20563;-67
2021/11/12 01:25:06;;;;;;;58.60;29.40;;;7.90;99.90;;;;;;5066377;28;20195;-66
2021/11/12 01:27:33;;;;;;;58.00;28.50;;;7.90;99.90;;;;;;5066153;28;20168;-66
2021/11/12 01:30:00;;;;;;;60.73;29.10;;;7.80;99.90;;;;;;5066182;28;20291;-67
2021/11/12 01:32:26;;;;;;;58.03;28.20;;;7.80;99.90;;;;;;5066577;28;20168;-66
2021/11/12 01:34:58;;;;;;;54.43;28.23;;;7.70;99.90;;;;;;5066420;28;20194;-66
2021/11/12 01:37:26;;;;;;;52.33;28.83;;;7.70;99.90;;;;;;5066127;28;20175;-66
2021/11/12 01:39:56;;;;;;;61.90;30.07;;;7.70;99.90;;;;;;5066279;28;20195;-67
2021/11/12 01:42:40;;;;;;;61.43;29.93;;;7.70;99.90;;;;;;5066288;28;20164;-66
2021/11/12 01:45:09;;;;;;;57.37;30.50;;;7.70;99.90;;;;;;5066075;28;20255;-66
2021/11/12 01:47:49;;;;;;;60.93;30.43;;;7.70;99.90;;;;;;5066006;28;20165;-66
2021/11/12 01:50:19;;;;;;;55.50;28.50;;;7.70;99.90;;;;;;5066515;28;20156;-67
2021/11/12 01:52:47;;;;;;;47.93;26.60;;;7.80;99.90;;;;;;5066264;28;20189;-67
2021/11/12 01:55:17;;;;;;;53.07;26.83;;;7.70;99.90;;;;;;5066204;28;20248;-67
2021/11/12 01:57:53;;;;;;;49.47;27.47;;;7.60;99.90;;;;;;5065067;28;20180;-66
2021/11/12 02:00:22;;;;;;;47.93;26.63;;;7.60;99.90;;;;;;5065757;28;20192;-68
2021/11/12 02:02:49;;;;;;;53.23;27.43;;;7.60;99.90;;;;;;5066265;28;20187;-67
2021/11/12 02:05:16;;;;;;;54.27;25.87;;;7.50;99.90;;;;;;5065976;28;20753;-67
2021/11/12 02:07:42;;;;;;;53.97;28.37;;;7.50;99.90;;;;;;5065888;28;20172;-66
2021/11/12 02:10:12;;;;;;;52.40;29.67;;;7.50;99.90;;;;;;5066257;28;20176;-66
2021/11/12 02:13:16;;;;;;;53.30;27.57;;;7.50;99.90;;;;;;5065728;28;20208;-67
2021/11/12 02:15:31;;;;;;;59.80;29.50;;;7.40;99.90;;;;;;5065469;28;20502;-66
2021/11/12 02:18:17;;;;;;;50.07;27.23;;;7.30;99.90;;;;;;5065571;28;20255;-66
2021/11/12 02:21:22;;;;;;;55.93;27.90;;;7.30;99.90;;;;;;5065740;28;20195;-67
2021/11/12 02:23:48;;;;;;;52.73;27.80;;;7.30;99.90;;;;;;5065703;28;20176;-67
2021/11/12 02:26:24;;;;;;;54.00;29.43;;;7.20;99.90;;;;;;5065664;28;20175;-67
2021/11/12 02:28:55;;;;;;;56.77;29.30;;;7.20;99.90;;;;;;5065243;28;20528;-67
2021/11/12 02:31:23;;;;;;;56.03;29.30;;;7.20;99.90;;;;;;5065961;28;20252;-66
2021/11/12 02:33:50;;;;;;;54.23;27.73;;;7.20;99.90;;;;;;5065777;28;20540;-66
2021/11/12 02:36:18;;;;;;;50.23;26.93;;;7.20;99.90;;;;;;5065812;28;20180;-66
2021/11/12 02:38:54;;;;;;;53.70;27.07;;;7.20;99.90;;;;;;5065815;28;20164;-67
2021/11/12 02:41:22;;;;;;;54.97;27.13;;;7.10;99.90;;;;;;5065867;28;20641;-67
2021/11/12 02:43:49;;;;;;;49.03;26.23;;;7.10;99.90;;;;;;5065372;28;20179;-66
2021/11/12 02:46:18;;;;;;;53.70;26.87;;;7.00;99.90;;;;;;5065677;28;20177;-66
2021/11/12 02:48:45;;;;;;;50.40;27.80;;;6.90;99.90;;;;;;5064318;28;20587;-66
2021/11/12 02:51:16;;;;;;;50.43;25.67;;;6.90;99.90;;;;;;5065646;28;20171;-67
2021/11/12 02:53:42;;;;;;;49.37;26.13;;;6.90;99.90;;;;;;5065695;28;20206;-66
2021/11/12 02:56:24;;;;;;;51.47;27.47;;;6.90;99.90;;;;;;5065409;28;20645;-66
2021/11/12 02:58:51;;;;;;;55.27;28.70;;;6.90;99.90;;;;;;5065341;28;20211;-67
2021/11/12 03:01:17;;;;;;;51.70;27.57;;;6.80;99.90;;;;;;5065609;28;20272;-66
2021/11/12 03:03:43;;;;;;;49.17;27.80;;;6.80;99.90;;;;;;5065469;28;20653;-67
2021/11/12 03:06:09;;;;;;;51.17;28.73;;;6.80;99.90;;;;;;5065347;28;20533;-67
2021/11/12 03:08:34;;;;;;;53.50;27.87;;;6.80;99.90;;;;;;5065488;28;20232;-66
2021/11/12 03:11:01;;;;;;;48.80;26.70;;;6.70;99.90;;;;;;5068826;28;20660;-66
2021/11/12 03:13:27;;;;;;;49.27;27.27;;;6.70;99.90;;;;;;5068500;28;20239;-66
2021/11/12 03:15:52;;;;;;;48.50;25.83;;;6.70;99.90;;;;;;5069169;28;20176;-66
2021/11/12 03:18:18;;;;;;;50.83;26.23;;;6.60;99.90;;;;;;5068793;28;20173;-66
2021/11/12 03:20:47;;;;;;;49.77;28.37;;;6.50;99.90;;;;;;5069358;28;20218;-66
2021/11/12 03:23:26;;;;;;;50.10;27.83;;;6.50;99.90;;;;;;5068892;28;20230;-67
2021/11/12 03:26:15;;;;;;;51.57;28.23;;;6.50;99.90;;;;;;5068963;28;20148;-67
2021/11/12 03:46:56;;;;;;;56.07;31.93;;;6.50;99.90;;;;;;5069033;28;20157;-67
2021/11/12 04:03:56;;;;;;;75.27;35.33;;;7.60;99.90;;;;;;5068075;28;20175;-66
2021/11/12 04:39:48;;;;;;;81.23;38.37;;;7.10;99.90;;;;;;5067336;28;20176;-66
2021/11/12 05:52:14;;;;;;;81.53;37.77;;;5.80;99.90;;;;;;5044292;28;20188;-66
2021/11/12 05:57:24;;;;;;;77.20;37.17;;;5.70;99.90;;;;;;5043762;28;20196;-66
2021/11/12 05:59:50;;;;;;;79.63;36.67;;;5.60;99.90;;;;;;5049397;28;20196;-66
2021/11/12 06:02:16;;;;;;;75.27;36.17;;;5.80;99.90;;;;;;5064902;28;20168;-66
2021/11/12 06:04:43;;;;;;;74.17;35.70;;;5.60;99.90;;;;;;5065913;28;20156;-66
2021/11/12 06:07:09;;;;;;;77.67;36.50;;;5.70;99.90;;;;;;5066062;28;20225;-66
2021/11/12 06:09:36;;;;;;;81.90;34.93;;;5.60;99.90;;;;;;5066012;28;20217;-66
2021/11/12 06:12:03;;;;;;;75.37;35.80;;;5.60;99.90;;;;;;5065716;28;20523;-66
2021/11/12 06:14:28;;;;;;;76.83;36.13;;;5.70;99.90;;;;;;5065486;28;20208;-66
2021/11/12 06:16:55;;;;;;;77.80;35.43;;;5.70;99.90;;;;;;5066105;28;20172;-65
2021/11/12 06:19:21;;;;;;;71.00;36.60;;;5.60;99.90;;;;;;5065861;28;20211;-65
2021/11/12 06:21:48;;;;;;;72.43;35.33;;;5.50;99.90;;;;;;5065806;28;20196;-66
2021/11/12 06:24:14;;;;;;;66.43;35.03;;;5.50;99.90;;;;;;5066110;28;20164;-66
2021/11/12 06:26:40;;;;;;;71.53;36.27;;;5.20;99.90;;;;;;5065606;28;20571;-66
2021/11/12 06:29:07;;;;;;;69.20;35.37;;;5.20;99.90;;;;;;5065292;28;20256;-66
2021/11/12 06:31:34;;;;;;;63.23;34.90;;;5.30;99.90;;;;;;5065755;28;20161;-66
2021/11/12 06:34:00;;;;;;;74.27;35.70;;;5.50;99.90;;;;;;5065798;28;20164;-66
2021/11/12 06:36:26;;;;;;;71.07;34.87;;;5.40;99.90;;;;;;5065721;28;20257;-66
2021/11/12 06:38:53;;;;;;;64.83;34.80;;;5.50;99.90;;;;;;5065588;28;20161;-66
2021/11/12 06:41:51;;;;;;;74.70;34.20;;;5.30;99.90;;;;;;5065645;28;20192;-66
2021/11/12 06:50:08;;;;;;;79.27;36.87;;;5.70;99.90;;;;;;5069561;28;20222;-65
2021/11/12 06:52:29;;;;;;;76.83;36.93;;;5.70;99.90;;;;;;5068698;28;20176;-65
2021/11/12 06:54:57;;;;;;;75.47;37.83;;;5.70;99.90;;;;;;5069077;28;20230;-66
2021/11/12 06:57:23;;;;;;;88.50;40.47;;;5.70;99.90;;;;;;5068588;28;20164;-65
2021/11/12 06:59:50;;;;;;;100.77;42.87;;;5.80;99.90;;;;;;5068681;28;20200;-65
2021/11/12 07:02:18;;;;;;;103.73;44.40;;;6.10;99.90;;;;;;5069094;28;20153;-65
2021/11/12 07:04:44;;;;;;;93.13;42.07;;;6.00;99.90;;;;;;5068793;28;20160;-65
2021/11/12 07:07:09;;;;;;;96.90;43.83;;;5.80;99.90;;;;;;5068203;28;20195;-65
2021/11/12 07:09:37;;;;;;;99.10;44.93;;;5.80;99.90;;;;;;5068821;28;20157;-65
2021/11/12 07:12:03;;;;;;;96.53;44.73;;;5.80;99.90;;;;;;5067303;28;20161;-65
2021/11/12 07:14:29;;;;;;;99.13;45.47;;;5.90;99.90;;;;;;5067317;28;20212;-66
2021/11/12 07:16:55;;;;;;;110.67;46.57;;;5.90;99.90;;;;;;5068323;28;20233;-65
2021/11/12 07:19:20;;;;;;;100.87;47.50;;;5.80;99.90;;;;;;5068347;28;20622;-65
2021/11/12 07:21:46;;;;;;;101.10;45.03;;;5.70;99.90;;;;;;5068519;28;20669;-65
2021/11/12 07:24:13;;;;;;;98.53;45.63;;;5.60;99.90;;;;;;5068344;28;20248;-65
2021/11/12 07:26:39;;;;;;;94.20;45.13;;;5.50;99.90;;;;;;5068240;28;20161;-65
2021/11/12 07:29:05;;;;;;;100.50;44.93;;;5.20;99.90;;;;;;5067873;28;20519;-65
2021/11/12 07:31:31;;;;;;;99.87;45.10;;;5.30;99.90;;;;;;5068392;28;20163;-65
2021/11/12 07:33:59;;;;;;;103.13;45.67;;;5.60;99.90;;;;;;5066902;28;20181;-65
2021/11/12 07:36:35;;;;;;;97.53;44.33;;;5.80;99.90;;;;;;5068314;28;20247;-65
2021/11/12 07:39:50;;;;;;;91.83;43.07;;;6.00;99.90;;;;;;5068124;28;20167;-65
2021/11/12 07:44:41;;;;;;;96.20;44.30;;;6.30;99.90;;;;;;5067909;28;20176;-65
2021/11/12 07:47:15;;;;;;;96.57;42.57;;;6.30;99.90;;;;;;5067891;28;20183;-65
2021/11/12 07:49:49;;;;;;;90.17;41.90;;;6.40;99.90;;;;;;5067985;28;20172;-65
2021/11/12 07:52:17;;;;;;;85.57;42.60;;;6.50;99.90;;;;;;5067871;28;20207;-65
2021/11/12 07:54:44;;;;;;;88.03;42.77;;;6.60;99.90;;;;;;5068054;28;20164;-65
2021/11/12 07:57:10;;;;;;;90.73;42.57;;;6.60;99.90;;;;;;5067687;28;20169;-65
2021/11/12 07:59:37;;;;;;;86.10;40.97;;;6.60;99.90;;;;;;5067298;28;20185;-65
2021/11/12 08:02:04;;;;;;;79.33;40.10;;;6.50;99.90;;;;;;5066370;28;20161;-63
2021/11/12 08:04:30;;;;;;;77.23;39.07;;;6.60;99.90;;;;;;5067853;28;20196;-63
2021/11/12 08:06:58;;;;;;;78.30;39.03;;;6.70;99.90;;;;;;5067591;28;20171;-63
2021/11/12 08:09:28;;;;;;;79.25;42.88;;;6.60;99.90;;;;;;5065761;28;20491;-63
2021/11/12 08:12:05;;;;;;;70.37;36.00;;;6.70;99.90;;;;;;5067952;28;20171;-63
2021/11/12 08:18:06;;;;;;;73.63;35.53;;;6.70;99.90;;;;;;5067608;28;20165;-63
2021/11/12 08:20:00;;;;;;;66.27;35.53;;;6.60;99.90;;;;;;5062527;28;20263;-63
2021/11/12 08:22:35;;;;;;;70.23;36.10;;;6.80;99.90;;;;;;5067618;28;20148;-63
2021/11/12 08:32:47;;;;;;;70.43;37.80;;;6.70;99.90;;;;;;5065888;28;20408;-63
2021/11/12 08:38:11;;;;;;;67.57;35.70;;;7.30;99.90;;;;;;5066215;28;20183;-63
2021/11/12 08:45:40;;;;;;;67.50;37.40;;;7.10;99.90;;;;;;5066490;28;20275;-63
2021/11/12 08:48:15;;;;;;;73.40;35.30;;;7.10;99.90;;;;;;5066809;28;20164;-65
2021/11/12 08:50:41;;;;;;;73.47;34.83;;;7.10;99.90;;;;;;5065512;28;20532;-65
2021/11/12 08:53:09;;;;;;;67.10;35.70;;;6.80;99.90;;;;;;5066912;28;20153;-65
2021/11/12 08:55:37;;;;;;;68.13;37.20;;;6.60;99.90;;;;;;5066907;28;20275;-65
2021/11/12 08:58:05;;;;;;;66.97;34.90;;;6.60;99.90;;;;;;5066517;28;20723;-65
2021/11/12 09:00:31;;;;;;;67.57;34.87;;;6.80;99.90;;;;;;5066014;28;20223;-65
2021/11/12 09:02:58;;;;;;;66.00;34.50;;;6.80;99.90;;;;;;5065286;28;20168;-66
2021/11/12 09:05:26;;;;;;;67.47;34.70;;;6.80;99.90;;;;;;5066690;28;20186;-65
2021/11/12 09:07:52;;;;;;;66.60;35.57;;;6.90;99.90;;;;;;5065834;28;20168;-65
2021/11/12 09:10:20;;;;;;;64.37;34.60;;;7.00;99.90;;;;;;5066598;28;20169;-66
2021/11/12 09:12:50;;;;;;;63.43;32.47;;;6.90;99.90;;;;;;5066297;28;20224;-66
2021/11/12 09:15:28;;;;;;;59.43;31.23;;;6.80;99.90;;;;;;5066314;28;20177;-66
2021/11/12 09:17:56;;;;;;;65.37;33.40;;;6.90;99.90;;;;;;5065018;28;20745;-66
2021/11/12 09:20:22;;;;;;;58.07;32.07;;;6.80;99.90;;;;;;5065148;28;20216;-66
2021/11/12 09:22:48;;;;;;;58.63;31.37;;;7.10;99.90;;;;;;5065804;28;20196;-66
2021/11/12 09:25:14;;;;;;;54.50;30.63;;;7.40;99.90;;;;;;5066186;28;20161;-66
2021/11/12 09:27:40;;;;;;;57.30;30.77;;;7.60;99.90;;;;;;5065428;28;20169;-67
2021/11/12 09:30:10;;;;;;;59.10;30.83;;;7.60;99.90;;;;;;5064445;28;20195;-66
2021/11/12 09:32:36;;;;;;;59.00;30.43;;;7.70;99.90;;;;;;5065378;28;20188;-66
2021/11/12 09:35:03;;;;;;;53.43;28.80;;;8.00;99.90;;;;;;5065515;28;20175;-66
2021/11/12 09:37:28;;;;;;;49.87;27.50;;;8.10;99.90;;;;;;5066019;28;20169;-66
2021/11/12 09:39:57;;;;;;;50.33;30.27;;;8.20;99.90;;;;;;5064892;28;20456;-66
2021/11/12 09:42:31;;;;;;;45.20;25.67;;;8.50;99.90;;;;;;5065751;28;20157;-65
2021/11/12 09:44:59;;;;;;;47.47;26.10;;;8.70;99.90;;;;;;5065154;28;20171;-65
2021/11/12 09:47:26;;;;;;;48.40;25.17;;;8.50;99.90;;;;;;5065828;28;20168;-65
2021/11/12 09:49:54;;;;;;;46.70;24.80;;;8.60;99.90;;;;;;5065646;28;20621;-66
2021/11/12 09:52:20;;;;;;;46.40;24.80;;;8.60;99.90;;;;;;5065494;28;20164;-66
2021/11/12 09:54:47;;;;;;;40.67;23.90;;;8.50;99.90;;;;;;5066211;28;20165;-66
2021/11/12 09:57:14;;;;;;;40.97;23.00;;;8.40;99.90;;;;;;5065702;28;20176;-66
2021/11/12 09:59:45;;;;;;;40.83;22.30;;;8.70;99.90;;;;;;5065429;28;20187;-65
2021/11/12 10:02:13;;;;;;;40.17;23.13;;;9.00;99.90;;;;;;5065612;28;20149;-66
2021/11/12 10:04:39;;;;;;;38.93;22.10;;;9.10;99.90;;;;;;5065087;28;20160;-66
2021/11/12 10:07:13;;;;;;;41.67;24.17;;;9.20;99.90;;;;;;5065498;28;20167;-65
2021/11/12 10:09:40;;;;;;;45.63;23.10;;;9.50;99.90;;;;;;5065469;28;20168;-66
2021/11/12 10:12:08;;;;;;;40.00;22.60;;;9.40;99.90;;;;;;5065717;28;20168;-66
2021/11/12 10:14:51;;;;;;;40.40;22.70;;;9.30;99.90;;;;;;5064669;28;20262;-66
2021/11/12 10:17:21;;;;;;;45.00;22.93;;;9.40;99.90;;;;;;5065324;28;20589;-66
2021/11/12 10:19:51;;;;;;;40.50;21.90;;;9.20;99.90;;;;;;5066634;28;20701;-66
2021/11/12 10:22:20;;;;;;;40.13;23.43;;;9.10;99.90;;;;;;5069427;28;20191;-65
2021/11/12 10:24:46;;;;;;;43.57;22.63;;;9.20;99.90;;;;;;5067699;28;20183;-66
2021/11/12 10:27:17;;;;;;;39.70;21.73;;;9.30;99.90;;;;;;5068486;28;20674;-66
2021/11/12 10:29:51;;;;;;;40.27;21.93;;;9.50;99.90;;;;;;5068101;28;20172;-66
2021/11/12 10:32:40;;;;;;;36.83;20.70;;;9.60;99.90;;;;;;5069626;28;20199;-66
2021/11/12 10:35:22;;;;;;;37.47;21.70;;;9.70;99.90;;;;;;5068926;28;20165;-66
2021/11/12 10:37:48;;;;;;;41.43;20.70;;;9.70;99.90;;;;;;5069209;28;20224;-66
2021/11/12 10:40:18;;;;;;;37.23;21.17;;;9.80;99.90;;;;;;5067605;28;20188;-66
2021/11/12 10:42:57;;;;;;;38.00;19.23;;;9.60;99.90;;;;;;5068348;28;20153;-66
2021/11/12 10:45:34;;;;;;;32.17;19.57;;;9.60;99.90;;;;;;5068302;28;20540;-66
2021/11/12 10:48:07;;;;;;;31.13;19.13;;;9.90;99.90;;;;;;5068815;28;20179;-66
2021/11/12 10:50:40;;;;;;;33.60;18.83;;;9.90;99.90;;;;;;5069404;28;20508;-65
2021/11/12 10:53:08;;;;;;;33.37;18.10;;;10.00;99.90;;;;;;5068761;28;20165;-65
2021/11/12 10:55:35;;;;;;;32.30;17.50;;;10.30;99.90;;;;;;5068967;28;20157;-65
2021/11/12 10:58:12;;;;;;;28.80;17.67;;;10.30;99.90;;;;;;5068766;28;20169;-65
2021/11/12 11:00:44;;;;;;;30.70;16.70;;;10.30;99.90;;;;;;5067617;28;20184;-65
2021/11/12 11:03:13;;;;;;;31.50;17.13;;;10.20;99.90;;;;;;5069059;28;20567;-65
2021/11/12 11:05:42;;;;;;;25.77;16.37;;;10.30;99.90;;;;;;5069129;28;20157;-65
2021/11/12 11:08:14;;;;;;;22.63;14.73;;;10.30;99.90;;;;;;5068565;28;20175;-65
2021/11/12 11:10:43;;;;;;;22.50;14.37;;;10.20;99.90;;;;;;5069174;28;20157;-65
2021/11/12 11:13:24;;;;;;;25.17;14.13;;;10.20;99.90;;;;;;5068009;28;20299;-65
2021/11/12 11:15:54;;;;;;;24.63;15.57;;;10.50;99.90;;;;;;5067581;28;20203;-65
2021/11/12 11:18:29;;;;;;;19.37;14.00;;;10.60;99.90;;;;;;5067070;28;20609;-65
2021/11/12 11:21:06;;;;;;;19.87;14.17;;;10.80;99.90;;;;;;5067460;28;20266;-65
2021/11/12 11:23:41;;;;;;;21.48;14.57;;;11.10;99.90;;;;;;5067536;28;20188;-65
2021/11/12 11:26:07;;;;;;;20.85;13.70;;;11.30;99.90;;;;;;5067643;28;20157;-65
2021/11/12 11:28:36;;;;;;;18.17;13.52;;;11.40;99.90;;;;;;5067286;28;20168;-65
2021/11/12 11:31:11;;;;;;;22.98;13.30;;;11.50;99.90;;;;;;5066513;28;20260;-65
2021/11/12 11:33:39;;;;;;;21.88;14.10;;;12.00;99.90;;;;;;5067439;28;20232;-65
2021/11/12 11:36:05;;;;;;;18.38;13.40;;;11.90;99.90;;;;;;5067229;28;20203;-66
2021/11/12 11:38:34;;;;;;;20.57;12.70;;;11.80;99.90;;;;;;5066970;28;20201;-65
2021/11/12 11:41:03;;;;;;;22.48;13.85;;;11.80;99.90;;;;;;5067188;28;20206;-65
2021/11/12 11:43:30;;;;;;;20.83;13.18;;;11.70;99.90;;;;;;5067244;28;20218;-65
2021/11/12 11:46:00;;;;;;;19.27;13.73;;;11.80;99.90;;;;;;5067024;28;20172;-65
2021/11/12 11:48:26;;;;;;;23.48;12.48;;;11.70;99.90;;;;;;5067200;28;20165;-65
2021/11/12 11:51:00;;;;;;;17.35;12.35;;;11.90;99.90;;;;;;5067244;28;20222;-65
2021/11/12 11:53:30;;;;;;;19.38;12.35;;;12.00;99.90;;;;;;5067072;28;20167;-66
2021/11/12 11:56:28;;;;;;;15.50;11.40;;;11.90;99.90;;;;;;5066769;28;20164;-66
2021/11/12 11:59:18;;;;;;;15.52;11.38;;;11.70;99.90;;;;;;5065013;28;20239;-65
2021/11/12 12:01:55;;;;;;;16.83;11.68;;;11.90;99.90;;;;;;5063816;28;20247;-65
2021/11/12 12:04:26;;;;;;;19.17;12.55;;;12.20;99.90;;;;;;5066842;28;20161;-66
2021/11/12 12:07:00;;;;;;;19.88;12.18;;;12.40;99.90;;;;;;5066601;28;20228;-65
2021/11/12 12:09:51;;;;;;;18.92;11.98;;;12.30;99.90;;;;;;5066606;28;20179;-65
2021/11/12 12:12:33;;;;;;;19.60;13.35;;;12.50;99.90;;;;;;5033383;28;1115451;-64
2021/11/12 12:15:05;;;;;;;14.70;10.95;;;12.40;99.90;;;;;;5067367;28;20176;-65
2021/11/12 12:17:36;;;;;;;16.40;11.75;;;12.50;99.90;;;;;;5067749;28;20165;-65
2021/11/12 12:34:01;;;;;;;17.05;10.98;;;12.10;99.90;;;;;;5067413;28;20183;-65
2021/11/12 13:22:32;;;;;;;14.40;10.93;;;12.40;99.90;;;;;;5066934;28;20181;-66
2021/11/12 13:24:39;;;;;;;16.48;11.50;;;12.80;99.90;;;;;;5063444;28;20181;-66
2021/11/12 13:27:06;;;;;;;16.27;11.05;;;12.90;99.90;;;;;;5065378;28;20168;-66
2021/11/12 13:29:41;;;;;;;13.88;10.77;;;12.90;99.90;;;;;;5065867;28;20173;-65
2021/11/12 13:32:07;;;;;;;17.90;9.82;;;12.80;99.90;;;;;;5065337;28;20199;-65
2021/11/12 13:34:59;;;;;;;14.98;10.63;;;12.80;99.90;;;;;;5066460;28;20167;-66
2021/11/12 13:37:27;;;;;;;13.18;10.00;;;12.80;99.90;;;;;;5065032;28;20181;-66
2021/11/12 13:40:06;;;;;;;15.52;9.93;;;12.70;99.90;;;;;;5066121;28;20153;-65
2021/11/12 13:42:44;;;;;;;15.05;10.38;;;12.80;99.90;;;;;;5066449;28;20153;-65
2021/11/12 13:45:22;;;;;;;16.55;10.25;;;12.80;99.90;;;;;;5064379;28;20259;-65
2021/11/12 13:48:11;;;;;;;13.55;10.13;;;12.90;99.90;;;;;;5064861;28;20725;-65
2021/11/12 13:51:01;;;;;;;15.13;11.25;;;12.90;99.90;;;;;;5066245;28;20164;-66
2021/11/12 13:53:28;;;;;;;14.52;9.48;;;12.90;99.90;;;;;;5066065;28;21186;-65
2021/11/12 13:55:57;;;;;;;14.32;10.02;;;12.90;99.90;;;;;;5065345;28;20415;-66
2021/11/12 13:58:25;;;;;;;14.32;10.27;;;13.10;99.90;;;;;;5065821;28;20165;-65
2021/11/12 14:00:52;;;;;;;16.80;10.07;;;13.20;99.90;;;;;;5065835;28;20176;-65
2021/11/12 14:03:30;;;;;;;12.70;9.38;;;13.10;99.90;;;;;;5066181;28;20252;-65
2021/11/12 14:05:59;;;;;;;14.48;9.70;;;13.20;99.90;;;;;;5065940;28;20168;-65
2021/11/12 14:08:45;;;;;;;11.20;8.95;;;13.20;99.90;;;;;;5065765;28;20169;-65
2021/11/12 14:11:29;;;;;;;15.05;9.77;;;13.00;99.90;;;;;;5065759;28;20188;-65
2021/11/12 14:14:06;;;;;;;10.68;8.55;;;12.90;99.90;;;;;;5065075;28;20697;-64
2021/11/12 14:16:35;;;;;;;12.15;9.20;;;12.80;99.90;;;;;;5065933;28;20179;-65
2021/11/12 14:19:24;;;;;;;13.77;9.38;;;12.80;99.90;;;;;;5064280;28;20570;-65
2021/11/12 14:21:57;;;;;;;14.98;9.75;;;12.90;99.90;;;;;;5065994;28;20184;-66
2021/11/12 14:24:44;;;;;;;14.02;8.60;;;12.80;99.90;;;;;;5064519;28;20164;-65
2021/11/12 14:35:47;;;;;;;14.60;9.48;;;12.70;99.90;;;;;;5064900;28;20169;-65
2021/11/12 14:38:29;;;;;;;16.73;9.23;;;12.70;99.90;;;;;;5065588;28;20173;-65
2021/11/12 14:46:37;;;;;;;16.45;10.85;;;12.60;99.90;;;;;;5065734;28;20176;-65
2021/11/12 14:49:26;;;;;;;19.85;12.50;;;12.60;99.90;;;;;;5065382;28;20195;-65
2021/11/12 14:54:37;;;;;;;21.10;13.05;;;12.50;99.90;;;;;;5065673;28;20255;-65
2021/11/12 14:57:15;;;;;;;25.10;14.60;;;12.40;99.90;;;;;;5065464;28;20161;-65
2021/11/12 14:59:42;;;;;;;20.77;13.35;;;12.40;99.90;;;;;;5064833;28;20204;-65
2021/11/12 15:02:09;;;;;;;28.05;14.93;;;12.40;99.90;;;;;;5065569;28;20150;-66
2021/11/12 15:04:35;;;;;;;27.92;12.90;;;12.30;99.90;;;;;;5065333;28;20156;-65
2021/11/12 15:07:01;;;;;;;22.75;13.75;;;12.20;99.90;;;;;;5068858;28;20161;-65
2021/11/12 15:09:32;;;;;;;21.45;12.68;;;12.30;99.90;;;;;;5068387;28;20176;-65
2021/11/12 15:12:01;;;;;;;22.38;12.65;;;12.30;99.90;;;;;;5069234;28;20149;-65
2021/11/12 15:14:33;;;;;;;24.10;13.82;;;12.30;99.90;;;;;;5068097;28;20212;-65
2021/11/12 15:17:01;;;;;;;19.80;13.63;;;12.30;99.90;;;;;;5068798;28;20157;-65
2021/11/12 15:19:29;;;;;;;23.33;12.77;;;12.20;99.90;;;;;;5068506;28;20171;-65
2021/11/12 15:32:49;;;;;;;25.55;16.13;;;12.60;99.90;;;;;;5046615;28;20164;-65
2021/11/12 15:35:17;;;;;;;26.23;17.73;;;12.40;99.90;;;;;;5045973;28;20177;-65
2021/11/12 15:40:17;;;;;;;28.08;17.50;;;12.40;99.90;;;;;;5045627;28;20189;-65
2021/11/12 15:48:13;;;;;;;21.98;13.15;;;11.90;99.90;;;;;;5046044;28;20181;-65
2021/11/12 16:11:42;;;;;;;15.43;10.98;;;11.30;99.90;;;;;;5067754;28;20556;-65
2021/11/12 16:19:28;;;;;;;18.45;10.32;;;11.40;99.90;;;;;;5067418;28;20550;-65
2021/11/12 16:24:47;;;;;;;18.83;11.87;;;11.30;99.90;;;;;;5067554;28;20222;-65
2021/11/12 16:27:13;;;;;;;20.53;11.57;;;11.30;99.90;;;;;;5067633;28;20169;-65
2021/11/12 16:29:41;;;;;;;18.90;12.43;;;11.20;99.90;;;;;;5066995;28;20544;-65
2021/11/12 16:32:11;;;;;;;18.73;12.35;;;11.20;99.90;;;;;;5067231;28;20168;-65
2021/11/12 16:34:49;;;;;;;19.95;11.30;;;11.00;99.90;;;;;;5067127;28;20161;-65
2021/11/12 16:37:18;;;;;;;17.90;11.50;;;11.00;99.90;;;;;;5067321;28;20145;-65
2021/11/12 16:48:12;;;;;;;15.32;10.32;;;11.30;99.90;;;;;;5067229;28;20161;-65
2021/11/12 16:50:58;;;;;;;23.33;11.10;;;11.30;99.90;;;;;;5067025;28;20186;-65
2021/11/12 16:58:48;;;;;;;18.60;10.38;;;11.10;99.90;;;;;;5065825;28;20708;-65
2021/11/12 17:04:06;;;;;;;15.40;10.98;;;11.20;99.90;;;;;;5066592;28;20168;-65
2021/11/12 17:11:31;;;;;;;18.83;10.98;;;11.20;99.90;;;;;;5066617;28;20161;-65
2021/11/12 17:14:23;;;;;;;12.98;10.60;;;11.30;99.90;;;;;;5066198;28;20219;-65
2021/11/12 17:46:42;;;;;;;15.23;11.47;;;10.70;99.90;;;;;;5066279;28;20260;-67
2021/11/12 17:49:15;;;;;;;15.97;11.50;;;10.70;99.90;;;;;;5066012;28;20165;-65
2021/11/12 17:51:48;;;;;;;20.93;11.87;;;10.80;99.90;;;;;;5066336;28;20152;-65
2021/11/12 18:02:32;;;;;;;16.90;11.67;;;10.70;99.90;;;;;;5066273;28;20168;-65
2021/11/12 21:46:49;;;;;;;26.90;17.50;;;10.60;99.90;;;;;;5066116;28;20203;-66
2021/11/12 21:49:15;;;;;;;28.50;17.87;;;10.60;99.90;;;;;;5064447;28;20169;-65
2021/11/12 21:51:42;;;;;;;29.23;17.43;;;10.60;99.90;;;;;;5065670;28;20164;-65
2021/11/12 21:54:08;;;;;;;29.67;17.43;;;10.60;99.90;;;;;;5065962;28;20183;-65
2021/11/12 21:56:34;;;;;;;28.17;17.73;;;10.60;99.90;;;;;;5065971;28;20161;-65
2021/11/12 21:59:02;;;;;;;27.03;17.00;;;10.60;99.90;;;;;;5065710;28;20173;-66
2021/11/12 22:01:29;;;;;;;25.23;17.17;;;10.70;99.90;;;;;;5065520;28;20759;-65
2021/11/12 22:03:55;;;;;;;29.83;16.40;;;10.60;99.90;;;;;;5065922;28;20208;-65
2021/11/12 22:06:21;;;;;;;25.50;15.90;;;10.70;99.90;;;;;;5065816;28;20167;-65
2021/11/12 22:08:46;;;;;;;27.37;16.43;;;10.60;99.90;;;;;;5065761;28;20695;-65
2021/11/12 22:11:13;;;;;;;31.20;17.47;;;10.60;99.90;;;;;;5065589;28;20161;-65
2021/11/12 22:13:41;;;;;;;27.53;16.43;;;10.70;99.90;;;;;;5065599;28;20212;-65
2021/11/12 22:16:09;;;;;;;28.83;17.03;;;10.70;99.90;;;;;;5069272;28;20169;-65
2021/11/12 22:18:36;;;;;;;29.23;16.97;;;10.70;99.90;;;;;;5069683;28;20157;-66
2021/11/12 22:21:02;;;;;;;26.10;16.33;;;10.70;99.90;;;;;;5069762;28;20181;-65
2021/11/12 22:23:29;;;;;;;31.63;16.43;;;10.70;99.90;;;;;;5069771;28;20161;-66
2021/11/12 22:25:56;;;;;;;26.93;15.57;;;10.60;99.90;;;;;;5069629;28;20183;-65
2021/11/12 22:28:22;;;;;;;26.40;15.57;;;10.70;99.90;;;;;;5068084;28;20164;-65
2021/11/12 22:30:48;;;;;;;26.23;16.27;;;10.70;99.90;;;;;;5067728;28;20645;-65
2021/11/12 22:33:14;;;;;;;25.90;14.93;;;10.70;99.90;;;;;;5069938;28;20161;-65
2021/11/12 22:35:40;;;;;;;27.33;16.53;;;10.60;99.90;;;;;;5069272;28;20247;-66
2021/11/12 22:38:09;;;;;;;25.63;15.60;;;10.70;99.90;;;;;;5069624;28;20168;-66
2021/11/12 22:40:34;;;;;;;35.33;16.90;;;10.60;99.90;;;;;;5068947;28;20188;-65
2021/11/12 22:43:00;;;;;;;30.27;16.10;;;10.60;99.90;;;;;;5069540;28;20167;-65